Scroll down
FLIGHT INFORMATION
Federal Express (FedEx)

FDX5260

At Arrival Gate

VABB
 ZGGG
DATE: 2022-07-31
GATE: 
GATE DEPARTURE: 08:43
TAKEOFF: 08:51
DATE: 2022-07-31
GATE:  -
LANDING: 14:05
GATE ARRIVAL: 14:13
FLIGHT DATA
Crew: 
Speed: 
511 kts
Altitude: 
37,133 ft
Stage Length: 
2,270.7 nm
Block Time: 
5.5 hrs
Flight Time: 
5.3 hrs
Fuel Used: 
89,590 lb
Cleared Route: VABB NONEN GIVEK PAPVO KAMLO ATMUV NITAG PALMU DADSO SEBMA JJS CEA SUMAG DAKID CTG CTG25 CHILA 54LSO LSO LINSO GMA MAKUL GULOT SGM LXI ADBAG MEPAN BSE DUDIT LBN ATLAT BIPOP AGRAV AVPAM GYA ZGGG
TRACK DATA
50,000 ft 1,000 kts
AIRCRAFT INFO AND CUMULATIVE STATS
Aircraft Type: 
B77LF
Registration: 
SELCAL: 
DHLQ
MSN/LN: 
40675 / 1336
Total Flights: 
1
Total Block Time: 
5.5 hrs
Total Flight Time: 
5.3 hrs
Total Fuel Used: 
89,590 lb
DATALINK LOG | Newest first | Current as of: 2022-08-16 07:31:28
LABEL SEQUENCE CONTENT Dn/Up
QD065914:13 31.1▼ Dn
QC595214:05▼ Dn
2U0159ZGGG 311630Z 19004MPS 9999 SCT050 32/26 Q1005 NOSIG▲ Up
2S0158ZGGG▼ Dn
QB450108:51▼ Dn
QA365308:43 120.7▼ Dn
2U2444ZGGG 311200Z 11002MPS CAVOK 34/24 Q1002 NOSIG▲ Up
2U2443VABB 311200Z 27012KT 5000 HZ FEW020 SCT025 30/25 Q1004 NOSIG▲ Up
2U2443RPLC 311200Z 36004KT 7000 -RA SCT020 OVC100 28/24 Q1009 NOSIG RMK A2980▲ Up
2S2443VABB ZGGG RPLC▼ Dn
A32138CLEARED TO ZGGG VIA NONEN Q19 ATMUV Q19 NITAG Q19 CEA B465 SUMAG B465 CTG A599 CHILA A599 LINSO A599 GYA. SQUAWK 4033.▲ Up
Q02037[LINK ACK]▲ Up
Q02037[LINK TEST]▼ Dn


AIRCRAFT HISTORY
FLIGHT DATE FLIGHT NO. ORIGIN DESTINATION CLEARED ROUTE BLOCK TIME FLIGHT TIME FUEL USED PILOT
2022-07-31FDX5260VABB ZGGG VABB NONEN GIVEK PAPVO KAMLO ATMUV NITAG PALMU DADSO SEBMA JJS CEA SUMAG DAKID CTG CTG25 CHILA 54LSO LSO LINSO GMA MAKUL GULOT SGM LXI ADBAG MEPAN BSE DUDIT LBN ATLAT BIPOP AGRAV AVPAM GYA ZGGG5.5 hrs5.3 hrs89,590 lbAllan Burek